sensor_id;sensor_type;location;lat;lon;timestamp;temperature;humidity
57218;DHT22;43078;52.972;6.482;2023-07-31T00:02:03;17.80;98.70
57218;DHT22;43078;52.972;6.482;2023-07-31T00:04:29;17.80;98.70
57218;DHT22;43078;52.972;6.482;2023-07-31T00:06:54;17.80;98.60
57218;DHT22;43078;52.972;6.482;2023-07-31T00:09:20;17.80;98.70
57218;DHT22;43078;52.972;6.482;2023-07-31T00:11:46;17.70;98.70
57218;DHT22;43078;52.972;6.482;2023-07-31T00:14:11;17.80;98.70
57218;DHT22;43078;52.972;6.482;2023-07-31T00:16:37;17.70;98.70
57218;DHT22;43078;52.972;6.482;2023-07-31T00:19:02;17.70;98.60
57218;DHT22;43078;52.972;6.482;2023-07-31T00:21:28;17.70;98.80
57218;DHT22;43078;52.972;6.482;2023-07-31T00:23:53;17.70;99.00
57218;DHT22;43078;52.972;6.482;2023-07-31T00:26:19;17.70;99.30
57218;DHT22;43078;52.972;6.482;2023-07-31T00:28:44;17.70;99.00
57218;DHT22;43078;52.972;6.482;2023-07-31T00:31:10;17.70;99.10
57218;DHT22;43078;52.972;6.482;2023-07-31T00:33:36;17.70;99.00
57218;DHT22;43078;52.972;6.482;2023-07-31T00:36:02;17.60;99.00
57218;DHT22;43078;52.972;6.482;2023-07-31T00:38:28;17.60;98.90
57218;DHT22;43078;52.972;6.482;2023-07-31T00:40:56;17.60;99.20
57218;DHT22;43078;52.972;6.482;2023-07-31T00:43:22;17.60;99.00
57218;DHT22;43078;52.972;6.482;2023-07-31T00:45:48;17.60;99.20
57218;DHT22;43078;52.972;6.482;2023-07-31T00:48:13;17.60;99.20
57218;DHT22;43078;52.972;6.482;2023-07-31T00:50:39;17.60;99.30
57218;DHT22;43078;52.972;6.482;2023-07-31T00:53:08;17.60;99.30
57218;DHT22;43078;52.972;6.482;2023-07-31T00:55:34;17.50;99.30
57218;DHT22;43078;52.972;6.482;2023-07-31T00:57:59;17.50;99.40
57218;DHT22;43078;52.972;6.482;2023-07-31T01:00:25;17.50;99.40
57218;DHT22;43078;52.972;6.482;2023-07-31T01:02:51;17.50;99.20
57218;DHT22;43078;52.972;6.482;2023-07-31T01:05:21;17.50;99.20
57218;DHT22;43078;52.972;6.482;2023-07-31T01:07:55;17.40;99.30
57218;DHT22;43078;52.972;6.482;2023-07-31T01:10:25;17.40;99.50
57218;DHT22;43078;52.972;6.482;2023-07-31T01:12:53;17.40;99.40
57218;DHT22;43078;52.972;6.482;2023-07-31T01:15:21;17.40;99.70
57218;DHT22;43078;52.972;6.482;2023-07-31T01:17:49;17.40;99.60
57218;DHT22;43078;52.972;6.482;2023-07-31T01:20:20;17.40;99.50
57218;DHT22;43078;52.972;6.482;2023-07-31T01:28:20;17.30;99.60
57218;DHT22;43078;52.972;6.482;2023-07-31T01:30:48;17.30;99.70
57218;DHT22;43078;52.972;6.482;2023-07-31T01:33:16;17.30;99.70
57218;DHT22;43078;52.972;6.482;2023-07-31T01:35:44;17.30;99.70
57218;DHT22;43078;52.972;6.482;2023-07-31T01:38:10;17.30;99.60
57218;DHT22;43078;52.972;6.482;2023-07-31T01:40:37;17.30;99.80
57218;DHT22;43078;52.972;6.482;2023-07-31T01:43:02;17.30;99.80
57218;DHT22;43078;52.972;6.482;2023-07-31T01:45:28;17.30;99.70
57218;DHT22;43078;52.972;6.482;2023-07-31T01:47:53;17.30;99.70
57218;DHT22;43078;52.972;6.482;2023-07-31T01:50:19;17.20;99.70
57218;DHT22;43078;52.972;6.482;2023-07-31T01:52:44;17.30;99.60
57218;DHT22;43078;52.972;6.482;2023-07-31T01:55:10;17.20;99.50
57218;DHT22;43078;52.972;6.482;2023-07-31T01:57:37;17.20;99.50
57218;DHT22;43078;52.972;6.482;2023-07-31T02:00:03;17.20;99.50
57218;DHT22;43078;52.972;6.482;2023-07-31T02:02:29;17.20;99.40
57218;DHT22;43078;52.972;6.482;2023-07-31T02:04:54;17.20;99.40
57218;DHT22;43078;52.972;6.482;2023-07-31T02:07:20;17.20;99.40
57218;DHT22;43078;52.972;6.482;2023-07-31T02:09:45;17.20;99.30
57218;DHT22;43078;52.972;6.482;2023-07-31T02:12:13;17.20;99.30
57218;DHT22;43078;52.972;6.482;2023-07-31T02:14:40;17.20;99.40
57218;DHT22;43078;52.972;6.482;2023-07-31T02:17:06;17.20;99.40
57218;DHT22;43078;52.972;6.482;2023-07-31T02:19:31;17.20;99.30
57218;DHT22;43078;52.972;6.482;2023-07-31T02:21:57;17.20;99.50
57218;DHT22;43078;52.972;6.482;2023-07-31T02:24:23;17.20;99.40
57218;DHT22;43078;52.972;6.482;2023-07-31T02:26:49;17.20;99.30
57218;DHT22;43078;52.972;6.482;2023-07-31T02:29:15;17.20;99.20
57218;DHT22;43078;52.972;6.482;2023-07-31T02:31:41;17.20;99.30
57218;DHT22;43078;52.972;6.482;2023-07-31T02:34:06;17.20;99.30
57218;DHT22;43078;52.972;6.482;2023-07-31T02:36:32;17.20;99.10
57218;DHT22;43078;52.972;6.482;2023-07-31T02:38:57;17.20;99.10
57218;DHT22;43078;52.972;6.482;2023-07-31T02:41:23;17.20;99.10
57218;DHT22;43078;52.972;6.482;2023-07-31T02:43:48;17.20;99.00
57218;DHT22;43078;52.972;6.482;2023-07-31T02:46:14;17.20;99.00
57218;DHT22;43078;52.972;6.482;2023-07-31T02:48:40;17.20;98.80
57218;DHT22;43078;52.972;6.482;2023-07-31T02:51:05;17.20;98.80
57218;DHT22;43078;52.972;6.482;2023-07-31T02:53:31;17.20;98.80
57218;DHT22;43078;52.972;6.482;2023-07-31T02:55:56;17.20;98.80
57218;DHT22;43078;52.972;6.482;2023-07-31T02:58:22;17.20;98.70
57218;DHT22;43078;52.972;6.482;2023-07-31T03:00:47;17.20;98.70
57218;DHT22;43078;52.972;6.482;2023-07-31T03:03:13;17.20;98.90
57218;DHT22;43078;52.972;6.482;2023-07-31T03:05:39;17.20;98.90
57218;DHT22;43078;52.972;6.482;2023-07-31T03:08:04;17.20;98.60
57218;DHT22;43078;52.972;6.482;2023-07-31T03:10:30;17.20;98.60
57218;DHT22;43078;52.972;6.482;2023-07-31T03:12:55;17.10;98.40
57218;DHT22;43078;52.972;6.482;2023-07-31T03:15:21;17.20;98.60
57218;DHT22;43078;52.972;6.482;2023-07-31T03:17:47;17.10;98.60
57218;DHT22;43078;52.972;6.482;2023-07-31T03:20:12;17.10;98.60
57218;DHT22;43078;52.972;6.482;2023-07-31T03:22:41;17.10;98.60
57218;DHT22;43078;52.972;6.482;2023-07-31T03:25:09;17.20;98.60
57218;DHT22;43078;52.972;6.482;2023-07-31T03:27:35;17.10;98.60
57218;DHT22;43078;52.972;6.482;2023-07-31T03:30:03;17.10;99.20
57218;DHT22;43078;52.972;6.482;2023-07-31T03:32:28;17.10;99.20
57218;DHT22;43078;52.972;6.482;2023-07-31T03:34:54;17.10;99.50
57218;DHT22;43078;52.972;6.482;2023-07-31T03:37:20;17.20;99.70
57218;DHT22;43078;52.972;6.482;2023-07-31T03:39:45;17.20;99.70
57218;DHT22;43078;52.972;6.482;2023-07-31T03:42:11;17.20;99.40
57218;DHT22;43078;52.972;6.482;2023-07-31T03:44:36;17.20;99.60
57218;DHT22;43078;52.972;6.482;2023-07-31T03:47:02;17.10;99.80
57218;DHT22;43078;52.972;6.482;2023-07-31T03:49:28;17.10;99.60
57218;DHT22;43078;52.972;6.482;2023-07-31T03:51:54;17.10;99.40
57218;DHT22;43078;52.972;6.482;2023-07-31T03:54:19;17.10;99.50
57218;DHT22;43078;52.972;6.482;2023-07-31T03:56:45;17.10;99.30
57218;DHT22;43078;52.972;6.482;2023-07-31T03:59:10;17.10;99.10
57218;DHT22;43078;52.972;6.482;2023-07-31T04:01:36;17.10;98.90
57218;DHT22;43078;52.972;6.482;2023-07-31T04:04:01;17.10;98.90
57218;DHT22;43078;52.972;6.482;2023-07-31T04:06:27;17.00;98.80
57218;DHT22;43078;52.972;6.482;2023-07-31T04:08:52;17.10;98.70
57218;DHT22;43078;52.972;6.482;2023-07-31T04:11:18;17.00;98.60
57218;DHT22;43078;52.972;6.482;2023-07-31T04:13:44;17.10;98.60
57218;DHT22;43078;52.972;6.482;2023-07-31T04:16:09;17.10;98.70
57218;DHT22;43078;52.972;6.482;2023-07-31T04:18:35;17.00;98.70
57218;DHT22;43078;52.972;6.482;2023-07-31T04:21:00;17.00;98.70
57218;DHT22;43078;52.972;6.482;2023-07-31T04:23:29;17.00;98.90
57218;DHT22;43078;52.972;6.482;2023-07-31T04:25:55;17.00;99.00
57218;DHT22;43078;52.972;6.482;2023-07-31T04:28:21;17.00;99.30
57218;DHT22;43078;52.972;6.482;2023-07-31T04:30:47;17.00;99.60
57218;DHT22;43078;52.972;6.482;2023-07-31T04:33:13;17.00;99.50
57218;DHT22;43078;52.972;6.482;2023-07-31T04:35:38;17.00;99.20
57218;DHT22;43078;52.972;6.482;2023-07-31T04:38:04;17.00;99.10
57218;DHT22;43078;52.972;6.482;2023-07-31T04:40:29;17.00;98.90
57218;DHT22;43078;52.972;6.482;2023-07-31T04:42:55;17.00;98.80
57218;DHT22;43078;52.972;6.482;2023-07-31T04:45:21;17.00;99.20
57218;DHT22;43078;52.972;6.482;2023-07-31T04:47:46;17.00;99.20
57218;DHT22;43078;52.972;6.482;2023-07-31T04:50:12;17.00;99.50
57218;DHT22;43078;52.972;6.482;2023-07-31T04:52:37;17.00;99.90
57218;DHT22;43078;52.972;6.482;2023-07-31T04:55:03;17.00;99.90
57218;DHT22;43078;52.972;6.482;2023-07-31T04:57:29;17.00;99.90
57218;DHT22;43078;52.972;6.482;2023-07-31T04:59:54;17.00;99.90
57218;DHT22;43078;52.972;6.482;2023-07-31T05:02:20;17.00;99.90
57218;DHT22;43078;52.972;6.482;2023-07-31T05:04:46;17.00;99.90
57218;DHT22;43078;52.972;6.482;2023-07-31T05:07:11;17.10;99.90
57218;DHT22;43078;52.972;6.482;2023-07-31T05:09:37;17.00;99.90
57218;DHT22;43078;52.972;6.482;2023-07-31T05:12:05;17.00;99.90
57218;DHT22;43078;52.972;6.482;2023-07-31T05:14:31;17.00;99.90
57218;DHT22;43078;52.972;6.482;2023-07-31T05:16:56;17.00;99.90
57218;DHT22;43078;52.972;6.482;2023-07-31T05:19:22;17.10;99.90
57218;DHT22;43078;52.972;6.482;2023-07-31T05:21:47;17.10;99.90
57218;DHT22;43078;52.972;6.482;2023-07-31T05:24:13;17.10;99.90
57218;DHT22;43078;52.972;6.482;2023-07-31T05:26:39;17.00;99.90
57218;DHT22;43078;52.972;6.482;2023-07-31T05:29:04;17.10;99.90
57218;DHT22;43078;52.972;6.482;2023-07-31T05:31:30;17.10;99.90
57218;DHT22;43078;52.972;6.482;2023-07-31T05:33:57;17.10;99.90
57218;DHT22;43078;52.972;6.482;2023-07-31T05:36:23;17.10;99.90
57218;DHT22;43078;52.972;6.482;2023-07-31T05:38:49;17.10;99.90
57218;DHT22;43078;52.972;6.482;2023-07-31T05:41:14;17.20;99.90
57218;DHT22;43078;52.972;6.482;2023-07-31T05:43:40;17.20;99.90
57218;DHT22;43078;52.972;6.482;2023-07-31T05:46:06;17.20;99.90
57218;DHT22;43078;52.972;6.482;2023-07-31T05:48:32;17.20;99.90
57218;DHT22;43078;52.972;6.482;2023-07-31T05:50:59;17.20;99.90
57218;DHT22;43078;52.972;6.482;2023-07-31T05:53:25;17.20;99.90
57218;DHT22;43078;52.972;6.482;2023-07-31T05:55:51;17.20;99.90
57218;DHT22;43078;52.972;6.482;2023-07-31T05:58:16;17.20;99.90
57218;DHT22;43078;52.972;6.482;2023-07-31T06:00:42;17.20;99.90
57218;DHT22;43078;52.972;6.482;2023-07-31T06:03:07;17.30;99.90
57218;DHT22;43078;52.972;6.482;2023-07-31T06:05:33;17.20;99.90
57218;DHT22;43078;52.972;6.482;2023-07-31T06:07:59;17.20;99.90
57218;DHT22;43078;52.972;6.482;2023-07-31T06:10:24;17.20;99.90
57218;DHT22;43078;52.972;6.482;2023-07-31T06:12:50;17.30;99.90
57218;DHT22;43078;52.972;6.482;2023-07-31T06:15:16;17.30;99.90
57218;DHT22;43078;52.972;6.482;2023-07-31T06:17:43;17.30;99.90
57218;DHT22;43078;52.972;6.482;2023-07-31T06:20:08;17.30;99.90
57218;DHT22;43078;52.972;6.482;2023-07-31T06:22:35;17.30;99.90
57218;DHT22;43078;52.972;6.482;2023-07-31T06:25:01;17.30;99.90
57218;DHT22;43078;52.972;6.482;2023-07-31T06:27:26;17.40;99.90
57218;DHT22;43078;52.972;6.482;2023-07-31T06:29:52;17.40;99.90
57218;DHT22;43078;52.972;6.482;2023-07-31T06:32:17;17.40;99.90
57218;DHT22;43078;52.972;6.482;2023-07-31T06:34:43;17.40;99.90
57218;DHT22;43078;52.972;6.482;2023-07-31T06:37:09;17.40;99.90
57218;DHT22;43078;52.972;6.482;2023-07-31T06:39:35;17.40;99.90
57218;DHT22;43078;52.972;6.482;2023-07-31T06:42:00;17.40;99.90
57218;DHT22;43078;52.972;6.482;2023-07-31T06:44:26;17.40;99.90
57218;DHT22;43078;52.972;6.482;2023-07-31T06:46:51;17.40;99.90
57218;DHT22;43078;52.972;6.482;2023-07-31T06:49:17;17.40;99.90
57218;DHT22;43078;52.972;6.482;2023-07-31T06:51:43;17.50;99.90
57218;DHT22;43078;52.972;6.482;2023-07-31T06:54:09;17.50;99.90
57218;DHT22;43078;52.972;6.482;2023-07-31T06:56:35;17.50;99.90
57218;DHT22;43078;52.972;6.482;2023-07-31T06:59:01;17.50;99.90
57218;DHT22;43078;52.972;6.482;2023-07-31T07:01:26;17.50;99.90
57218;DHT22;43078;52.972;6.482;2023-07-31T07:03:53;17.50;99.90
57218;DHT22;43078;52.972;6.482;2023-07-31T07:06:18;17.50;99.90
57218;DHT22;43078;52.972;6.482;2023-07-31T07:08:44;17.50;99.90
57218;DHT22;43078;52.972;6.482;2023-07-31T07:11:10;17.50;99.90
57218;DHT22;43078;52.972;6.482;2023-07-31T07:13:35;17.50;99.90
57218;DHT22;43078;52.972;6.482;2023-07-31T07:16:01;17.50;99.90
57218;DHT22;43078;52.972;6.482;2023-07-31T07:18:27;17.50;99.90
57218;DHT22;43078;52.972;6.482;2023-07-31T07:20:53;17.50;99.90
57218;DHT22;43078;52.972;6.482;2023-07-31T07:23:20;17.50;99.90
57218;DHT22;43078;52.972;6.482;2023-07-31T07:25:46;17.50;99.90
57218;DHT22;43078;52.972;6.482;2023-07-31T07:28:13;17.50;99.90
57218;DHT22;43078;52.972;6.482;2023-07-31T07:30:39;17.50;99.90
57218;DHT22;43078;52.972;6.482;2023-07-31T07:33:05;17.50;99.90
57218;DHT22;43078;52.972;6.482;2023-07-31T07:35:35;17.50;99.90
57218;DHT22;43078;52.972;6.482;2023-07-31T07:38:02;17.50;99.90
57218;DHT22;43078;52.972;6.482;2023-07-31T07:40:28;17.50;99.90
57218;DHT22;43078;52.972;6.482;2023-07-31T07:42:54;17.50;99.90
57218;DHT22;43078;52.972;6.482;2023-07-31T07:45:20;17.50;99.90
57218;DHT22;43078;52.972;6.482;2023-07-31T07:47:45;17.50;99.90
57218;DHT22;43078;52.972;6.482;2023-07-31T07:50:11;17.50;99.90
57218;DHT22;43078;52.972;6.482;2023-07-31T07:52:37;17.50;99.90
57218;DHT22;43078;52.972;6.482;2023-07-31T07:55:03;17.50;99.90
57218;DHT22;43078;52.972;6.482;2023-07-31T07:57:29;17.50;99.90
57218;DHT22;43078;52.972;6.482;2023-07-31T07:59:57;17.50;99.90
57218;DHT22;43078;52.972;6.482;2023-07-31T08:02:25;17.60;99.90
57218;DHT22;43078;52.972;6.482;2023-07-31T08:04:51;17.50;99.90
57218;DHT22;43078;52.972;6.482;2023-07-31T08:07:17;17.50;99.90
57218;DHT22;43078;52.972;6.482;2023-07-31T08:09:45;17.50;99.90
57218;DHT22;43078;52.972;6.482;2023-07-31T08:12:11;17.50;99.90
57218;DHT22;43078;52.972;6.482;2023-07-31T08:14:36;17.50;99.90
57218;DHT22;43078;52.972;6.482;2023-07-31T08:17:05;17.60;99.90
57218;DHT22;43078;52.972;6.482;2023-07-31T08:19:31;17.50;99.90
57218;DHT22;43078;52.972;6.482;2023-07-31T08:21:56;17.60;99.90
57218;DHT22;43078;52.972;6.482;2023-07-31T08:24:22;17.60;99.90
57218;DHT22;43078;52.972;6.482;2023-07-31T08:26:47;17.60;99.90
57218;DHT22;43078;52.972;6.482;2023-07-31T08:29:13;17.60;99.90
57218;DHT22;43078;52.972;6.482;2023-07-31T08:31:39;17.60;99.90
57218;DHT22;43078;52.972;6.482;2023-07-31T08:34:05;17.60;99.90
57218;DHT22;43078;52.972;6.482;2023-07-31T08:36:30;17.60;99.90
57218;DHT22;43078;52.972;6.482;2023-07-31T08:38:56;17.70;99.90
57218;DHT22;43078;52.972;6.482;2023-07-31T08:41:21;17.70;99.90
57218;DHT22;43078;52.972;6.482;2023-07-31T08:43:49;17.70;99.90
57218;DHT22;43078;52.972;6.482;2023-07-31T08:46:15;17.70;99.90
57218;DHT22;43078;52.972;6.482;2023-07-31T08:48:43;17.80;99.90
57218;DHT22;43078;52.972;6.482;2023-07-31T08:51:10;17.80;99.90
57218;DHT22;43078;52.972;6.482;2023-07-31T08:53:36;17.80;99.90
57218;DHT22;43078;52.972;6.482;2023-07-31T08:56:02;17.80;99.90
57218;DHT22;43078;52.972;6.482;2023-07-31T08:58:31;17.80;99.90
57218;DHT22;43078;52.972;6.482;2023-07-31T09:00:59;17.90;99.90
57218;DHT22;43078;52.972;6.482;2023-07-31T09:03:26;17.90;99.90
57218;DHT22;43078;52.972;6.482;2023-07-31T09:05:52;17.90;99.90
57218;DHT22;43078;52.972;6.482;2023-07-31T09:08:21;18.00;99.90
57218;DHT22;43078;52.972;6.482;2023-07-31T09:10:47;18.00;99.90
57218;DHT22;43078;52.972;6.482;2023-07-31T09:13:16;18.00;99.90
57218;DHT22;43078;52.972;6.482;2023-07-31T09:15:45;18.10;99.90
57218;DHT22;43078;52.972;6.482;2023-07-31T09:18:11;18.10;99.90
57218;DHT22;43078;52.972;6.482;2023-07-31T09:20:37;18.20;99.90
57218;DHT22;43078;52.972;6.482;2023-07-31T09:23:12;18.20;99.90
57218;DHT22;43078;52.972;6.482;2023-07-31T09:25:39;18.20;99.90
57218;DHT22;43078;52.972;6.482;2023-07-31T09:28:08;18.20;99.90
57218;DHT22;43078;52.972;6.482;2023-07-31T09:30:46;18.20;99.90
57218;DHT22;43078;52.972;6.482;2023-07-31T09:33:13;18.20;99.90
57218;DHT22;43078;52.972;6.482;2023-07-31T09:35:44;18.20;99.90
57218;DHT22;43078;52.972;6.482;2023-07-31T09:38:12;18.20;99.90
57218;DHT22;43078;52.972;6.482;2023-07-31T09:40:40;18.30;99.90
57218;DHT22;43078;52.972;6.482;2023-07-31T09:43:08;18.30;99.90
57218;DHT22;43078;52.972;6.482;2023-07-31T09:45:42;18.30;99.90
57218;DHT22;43078;52.972;6.482;2023-07-31T09:48:10;18.30;99.90
57218;DHT22;43078;52.972;6.482;2023-07-31T09:50:40;18.30;99.90
57218;DHT22;43078;52.972;6.482;2023-07-31T09:53:07;18.30;99.90
57218;DHT22;43078;52.972;6.482;2023-07-31T09:55:34;18.40;99.90
57218;DHT22;43078;52.972;6.482;2023-07-31T09:58:06;18.40;99.90
57218;DHT22;43078;52.972;6.482;2023-07-31T10:00:33;18.40;99.90
57218;DHT22;43078;52.972;6.482;2023-07-31T10:02:59;18.40;99.90
57218;DHT22;43078;52.972;6.482;2023-07-31T10:05:34;18.40;99.90
57218;DHT22;43078;52.972;6.482;2023-07-31T10:08:00;18.50;99.90
57218;DHT22;43078;52.972;6.482;2023-07-31T10:10:26;18.50;99.90
57218;DHT22;43078;52.972;6.482;2023-07-31T10:12:53;18.50;99.90
57218;DHT22;43078;52.972;6.482;2023-07-31T10:15:19;18.60;99.90
57218;DHT22;43078;52.972;6.482;2023-07-31T10:17:49;18.60;99.90
57218;DHT22;43078;52.972;6.482;2023-07-31T10:20:16;18.60;99.90
57218;DHT22;43078;52.972;6.482;2023-07-31T10:22:42;18.60;99.90
57218;DHT22;43078;52.972;6.482;2023-07-31T10:25:09;18.70;99.90
57218;DHT22;43078;52.972;6.482;2023-07-31T10:27:39;18.70;99.90
57218;DHT22;43078;52.972;6.482;2023-07-31T10:30:08;18.80;99.90
57218;DHT22;43078;52.972;6.482;2023-07-31T10:32:34;18.90;99.90
57218;DHT22;43078;52.972;6.482;2023-07-31T10:35:02;19.00;99.90
57218;DHT22;43078;52.972;6.482;2023-07-31T10:37:41;19.00;99.90
57218;DHT22;43078;52.972;6.482;2023-07-31T10:40:18;19.10;99.90
57218;DHT22;43078;52.972;6.482;2023-07-31T10:42:48;19.10;99.90
57218;DHT22;43078;52.972;6.482;2023-07-31T10:45:24;19.20;99.90
57218;DHT22;43078;52.972;6.482;2023-07-31T10:48:02;19.30;99.90
57218;DHT22;43078;52.972;6.482;2023-07-31T10:50:29;19.30;99.90
57218;DHT22;43078;52.972;6.482;2023-07-31T10:52:58;19.40;99.90
57218;DHT22;43078;52.972;6.482;2023-07-31T10:58:08;19.40;99.90
57218;DHT22;43078;52.972;6.482;2023-07-31T11:00:37;19.50;99.90
57218;DHT22;43078;52.972;6.482;2023-07-31T11:08:21;19.50;99.90
57218;DHT22;43078;52.972;6.482;2023-07-31T11:11:04;19.60;99.90
57218;DHT22;43078;52.972;6.482;2023-07-31T11:13:49;19.60;99.90
57218;DHT22;43078;52.972;6.482;2023-07-31T11:16:18;19.60;99.90
57218;DHT22;43078;52.972;6.482;2023-07-31T11:18:45;19.60;99.90
57218;DHT22;43078;52.972;6.482;2023-07-31T11:21:15;19.60;99.90
57218;DHT22;43078;52.972;6.482;2023-07-31T11:23:50;19.60;99.90
57218;DHT22;43078;52.972;6.482;2023-07-31T11:26:17;19.70;99.90
57218;DHT22;43078;52.972;6.482;2023-07-31T11:28:46;19.70;99.90
57218;DHT22;43078;52.972;6.482;2023-07-31T11:31:12;19.60;99.90
57218;DHT22;43078;52.972;6.482;2023-07-31T11:33:38;19.70;99.90
57218;DHT22;43078;52.972;6.482;2023-07-31T11:36:04;19.70;99.90
57218;DHT22;43078;52.972;6.482;2023-07-31T11:38:31;19.70;99.90
57218;DHT22;43078;52.972;6.482;2023-07-31T11:41:02;19.70;99.90
57218;DHT22;43078;52.972;6.482;2023-07-31T11:43:29;19.60;99.90
57218;DHT22;43078;52.972;6.482;2023-07-31T11:45:56;19.70;99.90
57218;DHT22;43078;52.972;6.482;2023-07-31T11:48:30;19.60;99.90
57218;DHT22;43078;52.972;6.482;2023-07-31T11:51:03;19.60;99.90
57218;DHT22;43078;52.972;6.482;2023-07-31T11:56:15;19.50;99.90
57218;DHT22;43078;52.972;6.482;2023-07-31T11:58:43;19.40;99.90
57218;DHT22;43078;52.972;6.482;2023-07-31T12:01:11;19.50;99.90
57218;DHT22;43078;52.972;6.482;2023-07-31T12:03:37;19.50;99.90
57218;DHT22;43078;52.972;6.482;2023-07-31T12:06:03;19.50;99.90
57218;DHT22;43078;52.972;6.482;2023-07-31T12:08:29;19.50;99.90
57218;DHT22;43078;52.972;6.482;2023-07-31T12:11:05;19.60;99.90
57218;DHT22;43078;52.972;6.482;2023-07-31T12:13:32;19.50;99.90
57218;DHT22;43078;52.972;6.482;2023-07-31T12:15:59;19.50;99.90
57218;DHT22;43078;52.972;6.482;2023-07-31T12:18:27;19.50;99.90
57218;DHT22;43078;52.972;6.482;2023-07-31T12:20:56;19.50;99.90
57218;DHT22;43078;52.972;6.482;2023-07-31T12:23:27;19.60;99.90
57218;DHT22;43078;52.972;6.482;2023-07-31T12:26:11;19.60;99.90
57218;DHT22;43078;52.972;6.482;2023-07-31T12:28:43;19.50;99.90
57218;DHT22;43078;52.972;6.482;2023-07-31T12:31:11;19.50;99.90
57218;DHT22;43078;52.972;6.482;2023-07-31T12:33:38;19.50;99.90
57218;DHT22;43078;52.972;6.482;2023-07-31T12:36:08;19.50;99.90
57218;DHT22;43078;52.972;6.482;2023-07-31T12:38:34;19.50;99.90
57218;DHT22;43078;52.972;6.482;2023-07-31T12:41:00;19.50;99.90
57218;DHT22;43078;52.972;6.482;2023-07-31T12:43:26;19.50;99.90
57218;DHT22;43078;52.972;6.482;2023-07-31T12:45:53;19.50;99.90
57218;DHT22;43078;52.972;6.482;2023-07-31T12:48:19;19.40;99.90
57218;DHT22;43078;52.972;6.482;2023-07-31T12:50:44;19.40;99.90
57218;DHT22;43078;52.972;6.482;2023-07-31T12:53:10;19.40;99.90
57218;DHT22;43078;52.972;6.482;2023-07-31T12:55:35;19.40;99.90
57218;DHT22;43078;52.972;6.482;2023-07-31T12:58:02;19.40;99.90
57218;DHT22;43078;52.972;6.482;2023-07-31T13:00:28;19.40;99.90
57218;DHT22;43078;52.972;6.482;2023-07-31T13:02:53;19.50;99.90
57218;DHT22;43078;52.972;6.482;2023-07-31T13:05:20;19.40;99.90
57218;DHT22;43078;52.972;6.482;2023-07-31T13:07:46;19.50;99.90
57218;DHT22;43078;52.972;6.482;2023-07-31T13:10:12;19.50;99.90
57218;DHT22;43078;52.972;6.482;2023-07-31T13:12:38;19.50;99.90
57218;DHT22;43078;52.972;6.482;2023-07-31T13:15:07;19.50;99.90
57218;DHT22;43078;52.972;6.482;2023-07-31T13:17:33;19.60;99.90
57218;DHT22;43078;52.972;6.482;2023-07-31T13:19:59;19.60;99.90
57218;DHT22;43078;52.972;6.482;2023-07-31T13:22:25;19.60;99.90
57218;DHT22;43078;52.972;6.482;2023-07-31T13:24:50;19.70;99.90
57218;DHT22;43078;52.972;6.482;2023-07-31T13:27:16;19.70;99.90
57218;DHT22;43078;52.972;6.482;2023-07-31T13:29:47;19.70;99.90
57218;DHT22;43078;52.972;6.482;2023-07-31T13:32:13;19.70;99.90
57218;DHT22;43078;52.972;6.482;2023-07-31T13:34:39;19.70;99.90
57218;DHT22;43078;52.972;6.482;2023-07-31T13:37:05;19.80;99.90
57218;DHT22;43078;52.972;6.482;2023-07-31T13:39:32;19.80;99.90
57218;DHT22;43078;52.972;6.482;2023-07-31T13:41:58;19.80;99.90
57218;DHT22;43078;52.972;6.482;2023-07-31T13:44:24;19.80;99.90
57218;DHT22;43078;52.972;6.482;2023-07-31T13:46:50;19.80;99.90
57218;DHT22;43078;52.972;6.482;2023-07-31T13:49:15;19.90;99.90
57218;DHT22;43078;52.972;6.482;2023-07-31T13:51:41;19.90;99.90
57218;DHT22;43078;52.972;6.482;2023-07-31T13:54:07;19.90;99.90
57218;DHT22;43078;52.972;6.482;2023-07-31T13:56:32;20.00;99.90
57218;DHT22;43078;52.972;6.482;2023-07-31T13:58:58;20.00;99.90
57218;DHT22;43078;52.972;6.482;2023-07-31T14:01:23;20.00;99.90
57218;DHT22;43078;52.972;6.482;2023-07-31T14:03:49;20.00;99.90
57218;DHT22;43078;52.972;6.482;2023-07-31T14:06:15;20.10;99.90
57218;DHT22;43078;52.972;6.482;2023-07-31T14:08:40;20.00;99.90
57218;DHT22;43078;52.972;6.482;2023-07-31T14:11:06;20.10;99.90
57218;DHT22;43078;52.972;6.482;2023-07-31T14:13:32;20.10;99.90
57218;DHT22;43078;52.972;6.482;2023-07-31T14:15:57;20.10;99.90
57218;DHT22;43078;52.972;6.482;2023-07-31T14:18:23;20.20;99.90
57218;DHT22;43078;52.972;6.482;2023-07-31T14:20:49;20.20;99.90
57218;DHT22;43078;52.972;6.482;2023-07-31T14:23:14;20.20;99.90
57218;DHT22;43078;52.972;6.482;2023-07-31T14:25:41;20.20;99.90
57218;DHT22;43078;52.972;6.482;2023-07-31T14:28:06;20.20;99.90
57218;DHT22;43078;52.972;6.482;2023-07-31T14:30:32;20.30;99.90
57218;DHT22;43078;52.972;6.482;2023-07-31T14:32:58;20.30;99.90
57218;DHT22;43078;52.972;6.482;2023-07-31T14:35:25;20.30;99.90
57218;DHT22;43078;52.972;6.482;2023-07-31T14:37:50;20.30;99.90
57218;DHT22;43078;52.972;6.482;2023-07-31T14:40:16;20.30;99.90
57218;DHT22;43078;52.972;6.482;2023-07-31T14:42:42;20.30;99.90
57218;DHT22;43078;52.972;6.482;2023-07-31T14:45:08;20.30;99.90
57218;DHT22;43078;52.972;6.482;2023-07-31T14:47:35;20.30;99.90
57218;DHT22;43078;52.972;6.482;2023-07-31T14:50:01;20.40;99.90
57218;DHT22;43078;52.972;6.482;2023-07-31T14:52:27;20.30;99.90
57218;DHT22;43078;52.972;6.482;2023-07-31T14:54:54;20.40;99.90
57218;DHT22;43078;52.972;6.482;2023-07-31T14:57:20;20.40;99.90
57218;DHT22;43078;52.972;6.482;2023-07-31T14:59:46;20.30;99.90
57218;DHT22;43078;52.972;6.482;2023-07-31T15:02:12;20.30;99.90
57218;DHT22;43078;52.972;6.482;2023-07-31T15:04:40;20.30;99.90
57218;DHT22;43078;52.972;6.482;2023-07-31T15:07:06;20.40;99.90
57218;DHT22;43078;52.972;6.482;2023-07-31T15:09:32;20.40;99.90
57218;DHT22;43078;52.972;6.482;2023-07-31T15:11:58;20.40;99.90
57218;DHT22;43078;52.972;6.482;2023-07-31T15:14:24;20.30;99.90
57218;DHT22;43078;52.972;6.482;2023-07-31T15:16:51;20.40;99.90
57218;DHT22;43078;52.972;6.482;2023-07-31T15:19:17;20.30;99.90
57218;DHT22;43078;52.972;6.482;2023-07-31T15:21:42;20.40;99.90
57218;DHT22;43078;52.972;6.482;2023-07-31T15:24:08;20.30;99.90
57218;DHT22;43078;52.972;6.482;2023-07-31T15:26:34;20.30;99.90
57218;DHT22;43078;52.972;6.482;2023-07-31T15:29:05;20.30;99.90
57218;DHT22;43078;52.972;6.482;2023-07-31T15:31:41;20.30;99.90
57218;DHT22;43078;52.972;6.482;2023-07-31T15:34:07;20.30;99.90
57218;DHT22;43078;52.972;6.482;2023-07-31T15:36:34;20.30;99.90
57218;DHT22;43078;52.972;6.482;2023-07-31T15:39:00;20.30;99.90
57218;DHT22;43078;52.972;6.482;2023-07-31T15:41:26;20.30;99.90
57218;DHT22;43078;52.972;6.482;2023-07-31T15:43:53;20.30;99.90